Time;durP1;ratioP1;P1;durP2;ratioP2;P2;SDS_P1;SDS_P2;PMS_P1;PMS_P2;Temp;Humidity;BMP_temperature;BMP_pressure;BME280_temperature;BME280_humidity;BME280_pressure;Samples;Min_cycle;Max_cycle;Signal;HPM_P1;HPM_P2
2023/08/26 00:00:38;;;;;;;11.20;5.70;;;;;;;20.82;65.99;100442.58;107738;1256;60540;-70
2023/08/26 00:03:06;;;;;;;6.70;5.40;;;;;;;20.79;66.00;100447.09;107844;1257;72563;-71
2023/08/26 00:05:34;;;;;;;7.60;5.70;;;;;;;20.78;66.19;100448.62;107551;1256;71289;-71
2023/08/26 00:08:01;;;;;;;7.90;5.20;;;;;;;20.82;66.28;100454.56;107810;1259;73879;-71
2023/08/26 00:10:29;;;;;;;7.80;5.80;;;;;;;20.86;66.49;100456.53;107810;1258;60512;-71
2023/08/26 00:12:56;;;;;;;7.20;5.60;;;;;;;20.90;66.17;100452.16;107722;1256;60512;-73
2023/08/26 00:15:24;;;;;;;8.30;5.40;;;;;;;20.93;66.13;100450.03;107747;1259;74015;-72
2023/08/26 00:17:51;;;;;;;7.30;5.30;;;;;;;20.98;66.41;100450.45;107856;1257;71600;-70
2023/08/26 00:20:21;;;;;;;8.20;5.80;;;;;;;21.02;66.44;100450.45;107834;1256;71461;-69
2023/08/26 00:22:49;;;;;;;6.50;5.10;;;;;;;21.07;66.55;100451.73;107903;1257;60510;-69
2023/08/26 00:25:16;;;;;;;7.70;5.50;;;;;;;21.15;66.37;100453.83;107683;1256;60409;-70
2023/08/26 00:27:44;;;;;;;9.70;5.80;;;;;;;21.21;66.29;100454.90;107713;1259;73967;-70
2023/08/26 00:30:13;;;;;;;8.80;6.00;;;;;;;21.27;66.31;100450.86;107898;1256;71566;-70
2023/08/26 00:32:42;;;;;;;8.00;5.30;;;;;;;21.32;65.93;100447.36;107935;1257;71408;-70
2023/08/26 00:35:10;;;;;;;8.90;5.50;;;;;;;21.35;65.90;100448.45;107815;1256;61808;-70
2023/08/26 00:37:37;;;;;;;8.50;5.60;;;;;;;21.36;65.81;100454.40;107913;1256;60284;-70
2023/08/26 00:40:05;;;;;;;7.00;5.40;;;;;;;21.39;65.64;100454.89;107903;1256;72313;-70
2023/08/26 00:42:36;;;;;;;8.60;5.80;;;;;;;21.42;65.57;100446.29;107889;1256;72354;-70
2023/08/26 00:45:07;;;;;;;7.50;5.50;;;;;;;21.41;65.28;100447.20;107698;1257;71579;-70
2023/08/26 00:47:37;;;;;;;7.00;5.40;;;;;;;21.42;64.95;100445.90;107925;1256;60182;-70
2023/08/26 00:50:05;;;;;;;8.40;5.80;;;;;;;21.44;64.67;100448.23;107824;1259;60315;-70
2023/08/26 00:52:35;;;;;;;7.70;5.90;;;;;;;21.45;64.43;100443.60;107600;1257;73895;-71
2023/08/26 00:55:02;;;;;;;7.90;5.50;;;;;;;21.44;64.38;100446.30;107771;1257;72736;-72
2023/08/26 00:57:30;;;;;;;7.30;5.80;;;;;;;21.43;64.19;100449.61;107688;1256;70793;-69
2023/08/26 00:59:58;;;;;;;8.40;5.70;;;;;;;21.41;64.26;100448.29;107679;1257;61658;-72
2023/08/26 01:02:25;;;;;;;8.30;5.60;;;;;;;21.40;64.24;100446.86;107683;1257;60018;-71
2023/08/26 01:04:53;;;;;;;7.60;5.60;;;;;;;21.40;64.22;100444.21;107592;1256;73958;-71
2023/08/26 01:07:21;;;;;;;8.00;5.60;;;;;;;21.41;64.30;100447.36;107728;1256;75072;-71
2023/08/26 01:09:50;;;;;;;7.90;5.50;;;;;;;21.42;64.41;100448.02;107736;1257;72845;-71
2023/08/26 01:12:35;;;;;;;7.90;6.00;;;;;;;21.44;64.22;100448.23;107596;1261;60472;-70
2023/08/26 01:15:10;;;;;;;8.80;5.70;;;;;;;21.43;64.02;100440.05;107664;1259;60422;-70
2023/08/26 01:17:37;;;;;;;8.60;6.50;;;;;;;21.39;63.88;100438.42;107758;1257;76112;-71
2023/08/26 01:20:06;;;;;;;9.00;6.00;;;;;;;21.37;63.77;100438.21;107742;1256;74660;-71
2023/08/26 01:22:34;;;;;;;8.80;6.10;;;;;;;21.36;63.79;100440.11;107452;1256;71508;-70
2023/08/26 01:25:02;;;;;;;8.90;6.00;;;;;;;21.35;63.75;100439.00;107687;1262;61749;-71
2023/08/26 01:27:29;;;;;;;9.80;5.80;;;;;;;21.33;63.71;100440.73;107704;1256;59039;-72
2023/08/26 01:29:57;;;;;;;8.60;6.00;;;;;;;21.28;63.70;100438.48;107796;1256;74128;-72
2023/08/26 01:32:31;;;;;;;10.40;6.20;;;;;;;21.23;63.78;100439.23;107891;1256;72845;-72
2023/08/26 01:34:59;;;;;;;9.40;6.10;;;;;;;21.20;63.98;100437.88;107650;1256;71396;-70
2023/08/26 01:37:27;;;;;;;11.90;6.80;;;;;;;21.17;64.03;100437.98;107786;1256;61976;-72
2023/08/26 01:39:55;;;;;;;7.80;6.00;;;;;;;21.12;64.19;100437.64;107739;1257;60304;-71
2023/08/26 01:42:24;;;;;;;8.60;6.80;;;;;;;21.09;64.36;100438.36;107700;1257;74690;-71
2023/08/26 01:44:52;;;;;;;10.20;6.50;;;;;;;21.00;64.61;100435.48;107564;1259;73086;-72
2023/08/26 01:47:19;;;;;;;10.90;6.50;;;;;;;20.96;64.91;100432.67;107647;1259;70543;-71
2023/08/26 01:49:47;;;;;;;9.70;7.40;;;;;;;20.95;65.00;100431.55;107834;1257;61670;-72
2023/08/26 01:52:14;;;;;;;10.00;6.80;;;;;;;20.97;65.23;100430.46;107820;1256;60283;-72
2023/08/26 01:54:42;;;;;;;8.10;6.50;;;;;;;20.98;65.31;100432.78;107693;1257;73862;-72
2023/08/26 01:57:10;;;;;;;9.50;7.30;;;;;;;20.98;65.40;100431.05;107847;1256;72745;-72
2023/08/26 01:59:39;;;;;;;10.80;7.00;;;;;;;20.99;65.60;100428.08;107832;1262;72768;-72
2023/08/26 02:02:07;;;;;;;9.10;7.20;;;;;;;21.00;65.70;100425.09;107685;1257;61681;-72
2023/08/26 02:04:37;;;;;;;9.00;6.40;;;;;;;20.99;65.60;100423.96;107631;1262;60424;-71
2023/08/26 02:07:05;;;;;;;8.80;6.30;;;;;;;20.98;65.63;100423.39;107560;1257;74038;-72
2023/08/26 02:09:33;;;;;;;9.90;6.40;;;;;;;20.97;65.68;100421.80;107649;1256;72777;-71
2023/08/26 02:12:01;;;;;;;9.10;6.20;;;;;;;20.95;65.93;100423.41;107645;1259;72754;-71
2023/08/26 02:14:29;;;;;;;9.30;6.10;;;;;;;20.95;65.86;100423.89;107668;1261;60398;-70
2023/08/26 02:16:56;;;;;;;8.30;6.10;;;;;;;20.91;65.75;100422.42;107742;1257;60230;-70
2023/08/26 02:19:24;;;;;;;8.20;6.40;;;;;;;20.89;65.95;100424.36;107785;1257;74075;-71
2023/08/26 02:21:52;;;;;;;9.80;5.80;;;;;;;20.85;66.00;100426.08;107640;1256;72546;-73
2023/08/26 02:24:22;;;;;;;8.70;6.50;;;;;;;20.76;66.17;100425.42;107780;1260;72981;-73
2023/08/26 02:26:50;;;;;;;9.20;6.80;;;;;;;20.64;66.42;100426.51;107770;1261;61812;-72
2023/08/26 02:29:17;;;;;;;10.50;6.80;;;;;;;20.54;66.67;100426.79;107639;1259;60454;-73
2023/08/26 02:31:45;;;;;;;10.10;7.30;;;;;;;20.45;66.97;100424.00;107730;1256;73907;-72
2023/08/26 02:34:13;;;;;;;9.30;6.70;;;;;;;20.40;67.26;100426.06;107768;1258;72984;-73
2023/08/26 02:36:40;;;;;;;11.70;7.10;;;;;;;20.39;67.58;100428.96;107701;1259;71821;-72
2023/08/26 02:39:08;;;;;;;10.50;7.40;;;;;;;20.41;67.66;100426.63;107628;1260;61782;-72
2023/08/26 02:41:36;;;;;;;9.80;7.10;;;;;;;20.39;67.83;100435.19;107589;1259;60939;-71
2023/08/26 02:44:03;;;;;;;9.50;7.10;;;;;;;20.38;67.95;100431.48;107346;1257;221942;-72
2023/08/26 02:46:31;;;;;;;8.50;6.90;;;;;;;20.35;68.22;100431.05;107660;1256;72787;-71
2023/08/26 02:48:58;;;;;;;9.00;6.90;;;;;;;20.34;68.46;100427.20;107841;1257;71499;-71
2023/08/26 02:51:26;;;;;;;8.80;7.30;;;;;;;20.37;68.58;100425.63;107636;1256;61784;-71
2023/08/26 02:53:54;;;;;;;10.60;7.30;;;;;;;20.40;68.68;100423.67;107693;1258;60312;-72
2023/08/26 02:56:22;;;;;;;9.10;6.90;;;;;;;20.43;68.75;100418.33;107705;1263;74267;-71
2023/08/26 02:58:49;;;;;;;9.10;6.80;;;;;;;20.44;68.90;100419.91;107731;1256;71090;-71
2023/08/26 03:01:18;;;;;;;9.60;7.20;;;;;;;20.42;68.90;100422.95;107712;1256;71493;-70
2023/08/26 03:03:46;;;;;;;9.40;7.50;;;;;;;20.38;69.15;100425.36;107624;1256;61720;-71
2023/08/26 03:06:13;;;;;;;10.50;7.20;;;;;;;20.37;69.28;100422.79;107679;1259;60414;-71
2023/08/26 03:08:41;;;;;;;10.60;6.80;;;;;;;20.41;69.38;100427.80;107720;1256;76169;-69
2023/08/26 03:11:09;;;;;;;10.50;7.10;;;;;;;20.46;69.57;100423.64;107709;1256;71663;-71
2023/08/26 03:13:37;;;;;;;10.10;7.10;;;;;;;20.51;69.69;100423.58;107827;1256;72707;-71
2023/08/26 03:16:06;;;;;;;8.90;7.10;;;;;;;20.56;69.68;100420.93;107709;1257;61736;-72
2023/08/26 03:18:34;;;;;;;8.80;7.10;;;;;;;20.63;69.70;100421.31;107904;1256;60284;-72
2023/08/26 03:21:06;;;;;;;9.90;7.20;;;;;;;20.65;69.77;100418.30;107715;1256;73829;-71
2023/08/26 03:23:37;;;;;;;11.60;7.30;;;;;;;20.67;69.88;100412.34;107871;1256;72875;-71
2023/08/26 03:26:05;;;;;;;10.80;7.70;;;;;;;20.72;69.78;100419.38;107744;1257;73382;-72
2023/08/26 03:28:34;;;;;;;11.90;7.40;;;;;;;20.77;69.81;100416.48;107670;1256;60508;-71
2023/08/26 03:31:05;;;;;;;10.00;7.10;;;;;;;20.83;69.80;100419.95;107700;1257;60284;-71
2023/08/26 03:33:34;;;;;;;9.40;6.70;;;;;;;20.89;69.62;100423.48;107719;1262;72436;-71
2023/08/26 03:36:03;;;;;;;12.00;7.60;;;;;;;20.93;69.62;100422.03;107889;1256;73120;-71
2023/08/26 03:38:32;;;;;;;13.40;7.40;;;;;;;20.98;69.58;100424.23;107697;1256;71707;-72
2023/08/26 03:41:06;;;;;;;10.30;7.20;;;;;;;21.01;69.51;100423.44;107688;1257;60387;-71
2023/08/26 03:43:33;;;;;;;10.60;7.10;;;;;;;21.04;69.30;100423.14;107624;1262;59617;-72
2023/08/26 03:46:01;;;;;;;9.70;7.30;;;;;;;21.05;69.24;100430.73;107748;1257;73858;-72
2023/08/26 03:48:30;;;;;;;9.90;7.30;;;;;;;21.07;69.11;100429.69;107663;1262;72721;-72
2023/08/26 03:50:58;;;;;;;9.70;7.10;;;;;;;21.07;69.07;100433.90;107730;1260;71415;-72
2023/08/26 03:53:27;;;;;;;8.50;6.90;;;;;;;21.07;68.95;100435.76;107629;1260;60400;-71
2023/08/26 03:55:55;;;;;;;10.20;7.10;;;;;;;21.09;68.92;100432.02;107780;1256;60300;-71
2023/08/26 03:58:22;;;;;;;10.30;7.20;;;;;;;21.12;68.95;100431.05;107781;1256;74289;-71
2023/08/26 04:00:50;;;;;;;8.80;6.80;;;;;;;21.18;68.82;100430.58;107613;1257;71820;-71
2023/08/26 04:03:18;;;;;;;8.90;6.40;;;;;;;21.24;68.77;100423.74;107607;1256;72751;-72
2023/08/26 04:05:46;;;;;;;8.50;6.90;;;;;;;21.30;68.73;100423.09;107658;1257;61766;-71
2023/08/26 04:08:13;;;;;;;10.10;7.20;;;;;;;21.36;68.44;100416.65;107607;1257;60354;-70
2023/08/26 04:10:41;;;;;;;10.30;7.20;;;;;;;21.42;68.32;100409.19;107605;1262;72455;-72
2023/08/26 04:13:24;;;;;;;9.70;7.00;;;;;;;21.48;68.04;100408.63;107751;1256;73069;-71
2023/08/26 04:16:02;;;;;;;8.30;6.60;;;;;;;21.52;67.89;100406.46;107618;1257;72485;-70
2023/08/26 04:18:31;;;;;;;11.20;7.50;;;;;;;21.57;67.76;100404.16;107674;1262;61929;-71
2023/08/26 04:20:59;;;;;;;9.00;7.40;;;;;;;21.62;67.53;100402.92;107717;1257;60453;-72
2023/08/26 04:23:30;;;;;;;10.00;6.90;;;;;;;21.69;67.52;100398.72;107634;1257;73841;-72
2023/08/26 04:26:00;;;;;;;10.60;6.60;;;;;;;21.77;67.31;100395.89;107739;1259;72989;-70
2023/08/26 04:28:29;;;;;;;9.40;7.50;;;;;;;21.86;67.04;100397.14;107684;1259;71828;-72
2023/08/26 04:30:58;;;;;;;8.90;6.90;;;;;;;21.95;66.89;100392.73;107683;1260;60791;-70
2023/08/26 04:33:26;;;;;;;7.80;6.30;;;;;;;22.04;66.57;100387.64;107658;1261;60388;-72
2023/08/26 04:35:53;;;;;;;9.50;6.70;;;;;;;22.15;65.95;100385.05;107757;1256;74581;-71
2023/08/26 04:38:21;;;;;;;9.20;6.00;;;;;;;22.26;65.51;100383.01;107644;1257;72872;-71
2023/08/26 04:40:48;;;;;;;9.40;6.20;;;;;;;22.36;64.97;100377.42;107629;1262;74805;-71
2023/08/26 04:43:17;;;;;;;10.10;6.60;;;;;;;22.47;64.39;100373.73;107646;1260;62459;-71
2023/08/26 04:45:44;;;;;;;9.60;6.40;;;;;;;22.57;64.27;100372.94;107688;1260;60184;-71
2023/08/26 04:48:12;;;;;;;9.20;6.20;;;;;;;22.67;63.89;100373.26;107624;1257;72722;-71
2023/08/26 04:50:41;;;;;;;7.60;6.30;;;;;;;22.78;63.55;100370.98;107764;1260;72727;-72
2023/08/26 04:53:09;;;;;;;8.70;5.90;;;;;;;22.92;63.28;100378.14;107668;1258;74806;-72
2023/08/26 04:55:36;;;;;;;7.20;5.90;;;;;;;23.05;62.91;100378.59;107638;1257;60303;-70
2023/08/26 04:58:07;;;;;;;9.80;5.80;;;;;;;23.16;62.45;100379.38;107719;1257;60294;-72
2023/08/26 05:00:36;;;;;;;9.00;5.60;;;;;;;23.26;61.80;100376.23;107665;1259;73903;-71
2023/08/26 05:03:04;;;;;;;7.80;5.00;;;;;;;23.32;60.96;100372.34;107703;1262;73795;-72
2023/08/26 05:05:32;;;;;;;8.30;5.70;;;;;;;23.35;60.54;100368.55;107635;1262;72777;-73
2023/08/26 05:07:59;;;;;;;8.60;5.80;;;;;;;23.38;60.22;100369.32;108137;1257;60361;-70
2023/08/26 05:10:27;;;;;;;9.10;6.30;;;;;;;23.42;59.71;100371.36;107607;1262;62328;-71
2023/08/26 05:12:55;;;;;;;9.30;5.80;;;;;;;23.48;59.40;100369.90;107681;1258;72673;-69
2023/08/26 05:15:23;;;;;;;9.00;5.90;;;;;;;23.57;59.26;100368.58;107805;1260;72506;-72
2023/08/26 05:17:50;;;;;;;7.40;6.10;;;;;;;23.68;59.00;100366.63;107755;1259;72716;-69
2023/08/26 05:20:19;;;;;;;10.00;6.40;;;;;;;23.79;58.74;100361.48;107671;1262;60478;-71
2023/08/26 05:22:47;;;;;;;8.30;6.20;;;;;;;23.87;58.31;100360.02;107645;1257;60210;-70
2023/08/26 05:25:14;;;;;;;9.30;6.10;;;;;;;23.95;57.94;100363.27;107774;1256;74052;-70
2023/08/26 05:27:42;;;;;;;9.50;6.40;;;;;;;24.04;57.69;100360.08;107850;1257;72702;-71
2023/08/26 05:30:12;;;;;;;11.30;6.00;;;;;;;24.18;57.53;100361.41;107653;1260;72000;-70
2023/08/26 05:32:44;;;;;;;10.30;5.90;;;;;;;24.30;57.13;100358.80;107663;1257;60460;-69
2023/08/26 05:35:12;;;;;;;7.90;6.00;;;;;;;24.43;56.62;100354.36;107787;1258;61167;-69
2023/08/26 05:37:44;;;;;;;7.80;5.80;;;;;;;24.57;56.25;100349.55;107612;1262;72553;-69
2023/08/26 05:40:14;;;;;;;8.50;5.50;;;;;;;24.71;55.98;100350.71;107449;1260;72835;-69
2023/08/26 05:42:42;;;;;;;9.30;5.70;;;;;;;24.87;55.70;100346.91;107565;1258;72752;-69
2023/08/26 05:45:10;;;;;;;9.80;5.90;;;;;;;25.04;55.20;100345.00;107563;1259;60385;-69
2023/08/26 05:47:37;;;;;;;7.20;5.10;;;;;;;25.21;54.53;100342.31;107552;1260;62815;-70
2023/08/26 05:50:06;;;;;;;8.70;5.80;;;;;;;25.39;54.20;100340.70;107427;1258;74819;-70
2023/08/26 05:52:33;;;;;;;9.10;5.40;;;;;;;25.60;53.45;100341.63;107627;1257;72740;-70
2023/08/26 05:55:01;;;;;;;7.20;5.20;;;;;;;25.82;52.74;100343.35;107693;1258;72904;-70
2023/08/26 05:57:29;;;;;;;5.80;4.60;;;;;;;26.05;52.02;100339.03;107553;1257;60517;-72
2023/08/26 05:59:56;;;;;;;8.60;5.20;;;;;;;26.29;51.29;100338.06;107770;1262;60263;-69
2023/08/26 06:02:24;;;;;;;7.90;4.70;;;;;;;26.51;50.35;100340.75;107636;1261;72733;-72
2023/08/26 06:04:52;;;;;;;9.00;4.70;;;;;;;26.68;49.28;100344.05;107724;1258;71444;-71
2023/08/26 06:07:20;;;;;;;7.90;5.00;;;;;;;26.77;48.34;100344.48;107824;1257;71564;-71
2023/08/26 06:09:47;;;;;;;7.70;4.30;;;;;;;26.84;47.86;100350.44;107638;1263;59253;-71
2023/08/26 06:12:15;;;;;;;7.40;3.80;;;;;;;26.90;47.71;100349.41;107694;1263;60337;-72
2023/08/26 06:14:43;;;;;;;7.20;4.60;;;;;;;26.94;47.22;100349.55;107743;1257;73044;-72
2023/08/26 06:17:10;;;;;;;6.90;4.00;;;;;;;26.96;46.58;100356.46;107675;1257;71684;-71
2023/08/26 06:19:38;;;;;;;6.60;4.20;;;;;;;26.98;46.22;100355.08;107538;1258;71834;-70
2023/08/26 06:22:06;;;;;;;6.10;3.80;;;;;;;27.00;46.16;100353.14;107736;1262;60315;-69
2023/08/26 06:24:34;;;;;;;8.70;4.30;;;;;;;27.02;46.05;100350.56;107699;1261;60457;-70
2023/08/26 06:27:03;;;;;;;7.70;3.90;;;;;;;27.04;45.96;100351.16;107669;1258;73120;-71
2023/08/26 06:29:30;;;;;;;6.70;4.00;;;;;;;27.09;46.08;100348.69;107394;1256;63962;-68
2023/08/26 06:31:59;;;;;;;9.40;3.90;;;;;;;27.16;46.10;100348.41;107636;1262;72692;-71
2023/08/26 06:34:29;;;;;;;7.20;3.70;;;;;;;27.30;45.90;100346.92;107567;1263;60539;-71
2023/08/26 06:36:57;;;;;;;6.00;3.60;;;;;;;27.50;45.17;100346.19;107634;1259;60396;-70
2023/08/26 06:39:24;;;;;;;5.80;3.70;;;;;;;27.71;44.79;100343.02;107609;1258;73882;-69
2023/08/26 06:41:52;;;;;;;8.90;4.20;;;;;;;27.92;43.88;100348.62;107527;1257;72877;-70
2023/08/26 06:44:19;;;;;;;5.50;3.50;;;;;;;28.08;43.15;100344.44;107541;1263;71159;-70
2023/08/26 06:46:49;;;;;;;6.40;3.80;;;;;;;28.19;42.45;100347.11;107531;1264;62693;-70
2023/08/26 06:49:16;;;;;;;7.00;4.00;;;;;;;28.26;41.94;100344.89;107772;1257;60422;-70
2023/08/26 06:51:44;;;;;;;6.10;3.60;;;;;;;28.37;41.81;100340.42;107653;1257;72490;-70
2023/08/26 06:54:12;;;;;;;6.20;3.60;;;;;;;28.48;41.57;100341.20;107709;1260;63021;-69
2023/08/26 06:56:39;;;;;;;9.40;3.70;;;;;;;28.59;41.15;100337.34;107531;1261;71447;-71
2023/08/26 06:59:07;;;;;;;6.70;3.50;;;;;;;28.69;40.77;100338.25;107485;1263;60414;-70
2023/08/26 07:01:35;;;;;;;5.90;3.50;;;;;;;28.81;40.69;100333.83;107632;1258;60309;-71
2023/08/26 07:04:08;;;;;;;7.00;3.30;;;;;;;28.92;40.30;100329.63;107674;1263;74808;-70
2023/08/26 07:06:36;;;;;;;5.50;3.50;;;;;;;29.02;39.91;100330.95;107705;1262;63841;-70
2023/08/26 07:09:04;;;;;;;6.10;3.40;;;;;;;29.07;39.49;100331.05;107633;1261;72795;-71
2023/08/26 07:11:33;;;;;;;6.20;3.50;;;;;;;29.13;39.48;100335.92;107616;1263;61096;-70
2023/08/26 07:14:01;;;;;;;6.00;3.40;;;;;;;29.24;39.66;100341.30;107651;1258;62718;-71
2023/08/26 07:16:29;;;;;;;5.30;3.40;;;;;;;29.39;39.20;100347.00;107656;1256;65119;-71
2023/08/26 07:18:57;;;;;;;5.30;3.50;;;;;;;29.56;38.97;100350.73;107543;1258;64309;-71
2023/08/26 07:21:25;;;;;;;6.50;3.50;;;;;;;29.75;38.72;100348.88;107346;1257;65930;-71
2023/08/26 07:23:52;;;;;;;5.70;3.40;;;;;;;29.93;38.08;100348.33;107642;1257;60494;-71
2023/08/26 07:26:20;;;;;;;5.40;3.40;;;;;;;30.07;37.52;100348.23;107690;1257;60173;-71
2023/08/26 07:28:48;;;;;;;6.50;3.70;;;;;;;30.18;36.75;100346.91;107716;1257;65022;-71
2023/08/26 07:31:16;;;;;;;6.50;3.40;;;;;;;30.27;37.10;100351.32;107650;1262;63782;-71
2023/08/26 07:33:44;;;;;;;5.70;3.30;;;;;;;30.36;36.88;100354.13;107745;1257;64162;-71
2023/08/26 07:36:11;;;;;;;7.00;3.30;;;;;;;30.41;36.16;100356.96;107459;1262;61256;-71
2023/08/26 07:38:39;;;;;;;5.80;3.20;;;;;;;30.44;36.36;100359.00;108271;1257;60236;-71
2023/08/26 07:41:07;;;;;;;6.00;3.20;;;;;;;30.47;36.27;100354.81;108005;1257;67208;-71
2023/08/26 07:43:37;;;;;;;7.40;3.50;;;;;;;30.49;36.25;100345.13;107733;1257;62597;-72
2023/08/26 07:46:05;;;;;;;4.90;3.10;;;;;;;30.50;35.72;100340.33;107809;1256;63694;-71
2023/08/26 07:48:35;;;;;;;7.20;3.80;;;;;;;30.52;35.02;100341.73;107528;1257;60518;-71
2023/08/26 07:51:04;;;;;;;4.60;3.10;;;;;;;30.51;35.49;100346.54;107535;1257;60405;-71
2023/08/26 07:53:32;;;;;;;6.50;3.50;;;;;;;30.56;35.15;100341.48;107444;1256;63787;-71
2023/08/26 07:55:59;;;;;;;5.80;3.20;;;;;;;30.62;34.35;100335.80;107659;1263;64025;-70
2023/08/26 07:58:27;;;;;;;6.70;3.30;;;;;;;30.68;34.31;100333.17;107576;1261;62487;-70
2023/08/26 08:00:55;;;;;;;5.00;3.30;;;;;;;30.76;34.62;100335.05;107855;1257;60296;-69
2023/08/26 08:03:23;;;;;;;5.60;3.50;;;;;;;30.88;34.53;100331.23;107621;1257;60325;-70
2023/08/26 08:05:50;;;;;;;5.80;3.30;;;;;;;30.98;34.36;100333.87;107732;1257;63687;-69
2023/08/26 08:08:18;;;;;;;5.00;3.00;;;;;;;31.08;33.81;100332.55;107470;1257;75004;-70
2023/08/26 08:10:45;;;;;;;7.10;3.50;;;;;;;31.21;33.69;100334.05;107519;1257;65932;-70
2023/08/26 08:13:13;;;;;;;4.70;2.80;;;;;;;31.32;33.38;100325.26;107610;1257;61108;-70
2023/08/26 08:15:41;;;;;;;11.60;3.60;;;;;;;31.43;33.24;100317.86;107704;1257;60441;-69
2023/08/26 08:18:08;;;;;;;7.30;3.40;;;;;;;31.54;33.14;100315.34;107701;1257;66158;-69
2023/08/26 08:20:36;;;;;;;4.90;3.20;;;;;;;31.64;32.77;100314.08;107587;1257;72347;-71
2023/08/26 08:23:05;;;;;;;5.60;3.30;;;;;;;31.72;32.81;100312.59;107792;1257;63886;-70
2023/08/26 08:25:33;;;;;;;4.30;3.10;;;;;;;31.81;32.65;100307.46;107927;1256;60290;-71
2023/08/26 08:28:01;;;;;;;6.50;3.40;;;;;;;31.89;32.63;100300.70;107708;1257;60391;-70
2023/08/26 08:30:28;;;;;;;5.40;2.90;;;;;;;32.01;32.29;100296.80;107550;1260;64981;-70
2023/08/26 08:32:56;;;;;;;5.40;3.10;;;;;;;32.12;31.84;100295.60;107616;1257;62678;-71
2023/08/26 08:35:25;;;;;;;4.50;3.00;;;;;;;32.23;31.61;100301.25;107546;1263;63981;-71
2023/08/26 08:37:53;;;;;;;5.60;3.10;;;;;;;32.31;31.38;100303.85;107585;1262;61048;-71
2023/08/26 08:40:21;;;;;;;4.80;2.80;;;;;;;32.35;31.35;100304.42;107564;1258;60441;-70
2023/08/26 08:42:49;;;;;;;6.30;3.50;;;;;;;32.40;31.49;100308.47;107382;1260;65296;-70
2023/08/26 08:45:17;;;;;;;6.00;3.20;;;;;;;32.47;31.62;100309.77;107681;1257;62644;-70
2023/08/26 08:47:45;;;;;;;6.30;3.10;;;;;;;32.54;31.86;100306.06;107463;1259;62814;-70
2023/08/26 08:50:14;;;;;;;4.60;3.20;;;;;;;32.63;32.05;100305.31;107366;1257;60297;-70
2023/08/26 08:52:42;;;;;;;4.70;3.10;;;;;;;32.68;32.02;100302.26;107542;1260;60277;-70
2023/08/26 08:55:10;;;;;;;6.50;3.60;;;;;;;32.63;32.19;100295.42;107248;1257;76235;-70
2023/08/26 08:57:37;;;;;;;5.60;3.30;;;;;;;32.55;33.32;100290.40;107645;1257;62714;-71
2023/08/26 09:00:08;;;;;;;6.60;3.60;;;;;;;32.41;33.96;100294.58;107503;1263;64077;-70
2023/08/26 09:02:42;;;;;;;6.40;3.30;;;;;;;32.25;33.81;100293.40;107519;1257;60341;-70
2023/08/26 09:05:10;;;;;;;5.60;3.30;;;;;;;32.14;34.71;100294.93;107556;1257;60658;-71
2023/08/26 09:07:38;;;;;;;6.20;4.00;;;;;;;32.13;34.92;100288.63;107476;1257;65643;-71
2023/08/26 09:10:11;;;;;;;5.80;4.10;;;;;;;32.15;35.14;100285.77;107485;1257;65054;-70
2023/08/26 09:12:39;;;;;;;6.00;4.20;;;;;;;32.24;35.37;100288.20;107376;1257;63899;-71
2023/08/26 09:15:07;;;;;;;6.60;4.30;;;;;;;32.34;35.62;100284.47;107310;1260;60281;-71
2023/08/26 09:17:35;;;;;;;7.30;4.30;;;;;;;32.43;36.35;100280.17;107540;1262;60277;-71
2023/08/26 09:20:05;;;;;;;4.90;3.90;;;;;;;32.55;36.79;100281.80;107692;1257;66843;-71
2023/08/26 09:22:32;;;;;;;7.40;4.40;;;;;;;32.66;36.69;100281.80;107630;1257;64276;-72
2023/08/26 09:25:05;;;;;;;5.70;4.30;;;;;;;32.74;36.85;100278.08;107353;1261;65957;-71
2023/08/26 09:27:34;;;;;;;5.20;4.40;;;;;;;32.83;36.57;100279.39;107614;1257;60463;-70
2023/08/26 09:30:04;;;;;;;6.40;4.30;;;;;;;32.92;36.54;100278.14;107562;1262;60323;-70
2023/08/26 09:32:35;;;;;;;6.40;4.40;;;;;;;33.02;36.48;100274.00;107572;1257;63748;-69
2023/08/26 09:35:11;;;;;;;5.80;4.40;;;;;;;33.10;36.46;100271.75;107653;1257;62648;-70
2023/08/26 09:37:40;;;;;;;7.00;4.60;;;;;;;33.22;36.46;100270.23;107615;1257;63917;-70
2023/08/26 09:40:18;;;;;;;6.50;4.60;;;;;;;33.35;36.52;100265.58;107587;1257;60480;-70
2023/08/26 09:42:45;;;;;;;7.10;4.90;;;;;;;33.48;35.83;100266.25;107492;1257;60517;-70
2023/08/26 09:45:14;;;;;;;8.60;5.00;;;;;;;33.58;35.70;100261.92;107738;1260;63808;-71
2023/08/26 09:47:42;;;;;;;8.30;5.20;;;;;;;33.64;35.43;100254.29;107492;1257;63866;-69
2023/08/26 09:50:10;;;;;;;5.90;4.50;;;;;;;33.72;35.26;100253.93;107537;1260;68852;-71
2023/08/26 09:52:48;;;;;;;8.00;4.90;;;;;;;33.78;35.24;100251.20;107483;1259;60526;-70
2023/08/26 09:55:16;;;;;;;7.30;4.60;;;;;;;33.81;35.27;100248.77;107505;1257;60081;-71
2023/08/26 09:57:43;;;;;;;6.20;4.60;;;;;;;33.84;34.89;100249.52;107676;1257;63754;-71
2023/08/26 10:00:11;;;;;;;7.10;4.70;;;;;;;33.83;34.62;100244.77;107701;1257;62513;-71
2023/08/26 10:02:48;;;;;;;6.90;4.70;;;;;;;33.83;35.09;100246.60;107387;1260;64739;-71
2023/08/26 10:05:20;;;;;;;5.50;4.40;;;;;;;33.79;35.78;100247.14;107666;1257;60189;-71
2023/08/26 10:07:49;;;;;;;5.50;4.30;;;;;;;33.73;35.82;100251.46;107791;1257;59608;-71
2023/08/26 10:10:34;;;;;;;6.10;4.80;;;;;;;33.67;35.78;100256.62;107699;1259;63910;-71
2023/08/26 10:13:04;;;;;;;5.40;4.50;;;;;;;33.59;35.42;100255.33;107681;1257;63898;-71
2023/08/26 10:15:33;;;;;;;8.70;4.80;;;;;;;33.54;35.97;100259.13;107413;1260;62460;-74
2023/08/26 10:18:16;;;;;;;6.00;4.40;;;;;;;33.47;36.13;100263.50;107399;1260;60527;-71
2023/08/26 10:20:44;;;;;;;6.40;4.20;;;;;;;33.48;36.38;100260.81;107553;1259;60502;-69
2023/08/26 10:23:12;;;;;;;6.60;4.60;;;;;;;33.49;36.34;100260.16;107675;1257;65028;-69
2023/08/26 10:25:40;;;;;;;5.70;4.80;;;;;;;33.52;36.44;100265.17;107747;1257;63821;-70
2023/08/26 10:28:14;;;;;;;6.40;4.40;;;;;;;33.54;36.31;100262.79;107589;1262;62506;-71
2023/08/26 10:30:41;;;;;;;6.50;4.50;;;;;;;33.50;36.49;100263.15;107504;1257;60421;-70
2023/08/26 10:33:09;;;;;;;5.30;4.00;;;;;;;33.43;36.52;100260.47;107645;1257;60517;-70
2023/08/26 10:35:39;;;;;;;6.70;4.80;;;;;;;33.28;36.83;100257.46;107454;1256;65180;-70
2023/08/26 10:38:11;;;;;;;5.20;4.30;;;;;;;33.08;36.89;100261.11;107647;1257;72300;-69
2023/08/26 10:40:39;;;;;;;6.30;4.60;;;;;;;32.94;36.95;100263.02;107490;1262;62466;-69
2023/08/26 10:43:08;;;;;;;8.90;4.90;;;;;;;32.77;36.77;100265.55;107584;1257;59704;-69
2023/08/26 10:45:47;;;;;;;9.10;4.80;;;;;;;32.62;37.08;100272.86;107616;1256;60314;-69
2023/08/26 10:48:15;;;;;;;9.50;5.00;;;;;;;32.57;37.54;100271.98;107957;1260;63893;-69
2023/08/26 10:50:46;;;;;;;6.00;4.90;;;;;;;32.63;37.92;100272.92;107559;1256;65815;-70
2023/08/26 10:53:15;;;;;;;6.20;4.80;;;;;;;32.78;38.38;100267.44;107593;1257;63872;-70
2023/08/26 10:55:44;;;;;;;7.30;4.70;;;;;;;33.00;38.01;100263.65;107839;1256;60302;-69
2023/08/26 10:58:19;;;;;;;5.90;4.70;;;;;;;33.24;37.15;100257.23;107493;1258;60443;-69
2023/08/26 11:00:52;;;;;;;7.10;4.90;;;;;;;33.46;36.67;100255.63;107769;1260;64985;-69
2023/08/26 11:03:20;;;;;;;5.90;4.70;;;;;;;33.62;36.32;100254.34;107698;1256;62535;-69
2023/08/26 11:06:09;;;;;;;8.20;4.50;;;;;;;33.67;36.54;100253.77;107717;1256;64007;-69
2023/08/26 11:08:56;;;;;;;6.90;4.70;;;;;;;33.73;36.53;100253.26;107680;1259;60291;-69
2023/08/26 11:11:25;;;;;;;6.40;5.00;;;;;;;33.72;36.36;100251.71;107510;1256;60533;-70
2023/08/26 11:13:52;;;;;;;6.20;5.30;;;;;;;33.69;36.58;100252.64;107559;1259;63654;-70
2023/08/26 11:16:21;;;;;;;8.60;5.10;;;;;;;33.58;36.98;100249.02;107699;1259;63731;-69
2023/08/26 11:18:53;;;;;;;6.10;4.60;;;;;;;33.50;37.57;100245.91;107707;1257;63870;-69
2023/08/26 11:21:22;;;;;;;7.30;5.00;;;;;;;33.43;37.45;100249.17;107749;1257;60577;-70
2023/08/26 11:23:51;;;;;;;6.40;4.90;;;;;;;33.34;37.80;100247.72;107584;1257;60414;-70